createdAt,value
2022-12-20T00:02:07.381Z,101164.63
2022-12-20T00:04:36.324Z,101153.50
2022-12-20T00:07:05.110Z,101156.34
2022-12-20T00:09:35.243Z,101165.50
2022-12-20T00:12:04.101Z,101157.28
2022-12-20T00:14:32.606Z,101155.59
2022-12-20T00:17:03.793Z,101144.56
2022-12-20T00:19:32.479Z,101140.38
2022-12-20T00:22:00.896Z,101135.03
2022-12-20T00:24:29.350Z,101136.84
2022-12-20T00:27:00.103Z,101135.75
2022-12-20T00:29:28.709Z,101129.25
2022-12-20T00:31:57.318Z,101129.56
2022-12-20T00:34:29.006Z,101123.47
2022-12-20T00:37:01.061Z,101136.13
2022-12-20T00:39:29.569Z,101144.91
2022-12-20T00:42:00.152Z,101155.16
2022-12-20T00:44:28.717Z,101153.69
2022-12-20T00:46:58.120Z,101145.22
2022-12-20T00:49:27.089Z,101155.84
2022-12-20T00:51:55.833Z,101162.03
2022-12-20T00:54:25.447Z,101144.44
2022-12-20T00:56:56.082Z,101140.72
2022-12-20T00:59:29.073Z,101143.28
2022-12-20T01:01:58.114Z,101131.91
2022-12-20T01:04:29.786Z,101133.38
2022-12-20T01:06:58.326Z,101134.00
2022-12-20T01:09:27.703Z,101120.56
2022-12-20T01:11:59.167Z,101117.50
2022-12-20T01:14:32.431Z,101122.63
2022-12-20T01:17:01.141Z,101127.47
2022-12-20T01:19:29.831Z,101129.88
2022-12-20T01:21:58.401Z,101124.88
2022-12-20T01:24:27.373Z,101118.94
2022-12-20T01:26:59.189Z,101110.47
2022-12-20T01:29:28.020Z,101104.91
2022-12-20T01:31:58.744Z,101115.78
2022-12-20T01:34:27.578Z,101115.41
2022-12-20T01:36:58.568Z,101115.78
2022-12-20T01:39:27.329Z,101105.78
2022-12-20T01:41:58.861Z,101116.22
2022-12-20T01:44:59.624Z,101124.72
2022-12-20T01:47:35.925Z,101124.16
2022-12-20T01:50:10.595Z,101107.88
2022-12-20T01:52:46.328Z,101109.22
2022-12-20T01:55:21.430Z,101102.38
2022-12-20T01:57:57.320Z,101114.03
2022-12-20T02:00:26.914Z,101111.06
2022-12-20T02:03:08.729Z,101105.19
2022-12-20T02:05:41.355Z,101114.66
2022-12-20T02:08:11.305Z,101102.28
2022-12-20T02:11:03.413Z,101098.44
2022-12-20T02:13:47.640Z,101100.47
2022-12-20T02:16:23.586Z,101099.13
2022-12-20T02:19:08.214Z,101111.25
2022-12-20T02:21:44.614Z,101109.59
2022-12-20T02:24:55.528Z,101100.72
2022-12-20T02:27:55.496Z,101102.94
2022-12-20T02:30:32.254Z,101102.47
2022-12-20T02:33:05.826Z,101093.38
2022-12-20T02:35:38.467Z,101104.59
2022-12-20T02:38:31.871Z,101094.31
2022-12-20T02:41:08.991Z,101096.13
2022-12-20T02:44:00.439Z,101106.84
2022-12-20T02:46:34.157Z,101094.22
2022-12-20T02:49:11.536Z,101088.53
2022-12-20T02:51:44.784Z,101087.34
2022-12-20T02:54:14.539Z,101087.28
2022-12-20T02:56:51.876Z,101080.03
2022-12-20T02:59:27.275Z,101072.97
2022-12-20T03:02:01.253Z,101078.97
2022-12-20T03:04:37.041Z,101087.59
2022-12-20T03:07:10.203Z,101076.63
2022-12-20T03:09:47.152Z,101080.56
2022-12-20T03:12:17.919Z,101090.50
2022-12-20T03:14:46.467Z,101089.47
2022-12-20T03:17:16.728Z,101084.66
2022-12-20T03:19:45.161Z,101104.06
2022-12-20T03:22:13.542Z,101090.16
2022-12-20T03:24:42.172Z,101082.81
2022-12-20T03:27:10.556Z,101088.63
2022-12-20T03:29:39.395Z,101090.28
2022-12-20T03:32:08.059Z,101085.69
2022-12-20T03:34:38.885Z,101076.97
2022-12-20T03:37:07.542Z,101077.47
2022-12-20T03:39:36.192Z,101075.91
2022-12-20T03:42:11.978Z,101069.03
2022-12-20T03:44:40.941Z,101076.44
2022-12-20T03:47:15.787Z,101068.84
2022-12-20T03:49:46.425Z,101075.94
2022-12-20T03:52:15.832Z,101073.25
2022-12-20T03:54:44.989Z,101074.19
2022-12-20T03:57:13.796Z,101070.66
2022-12-20T03:59:43.445Z,101071.59
2022-12-20T04:02:12.663Z,101069.03
2022-12-20T04:04:41.702Z,101067.06
2022-12-20T04:07:12.617Z,101060.06
2022-12-20T04:09:41.615Z,101069.88
2022-12-20T04:12:10.451Z,101072.25
2022-12-20T04:14:39.159Z,101059.38
2022-12-20T04:17:08.868Z,101058.72
2022-12-20T04:19:37.513Z,101062.97
2022-12-20T04:22:06.517Z,101062.72
2022-12-20T04:24:36.952Z,101055.91
2022-12-20T04:27:05.933Z,101058.44
2022-12-20T04:29:35.003Z,101056.78
2022-12-20T04:32:03.923Z,101050.94
2022-12-20T04:34:32.905Z,101050.78
2022-12-20T04:37:01.832Z,101050.00
2022-12-20T04:39:34.016Z,101049.06
2022-12-20T04:42:07.186Z,101043.22
2022-12-20T04:44:39.749Z,101037.53
2022-12-20T04:47:08.639Z,101037.09
2022-12-20T04:49:37.910Z,101042.06
2022-12-20T04:52:28.021Z,101040.69
2022-12-20T04:54:57.069Z,101046.22
2022-12-20T04:57:29.476Z,101035.47
2022-12-20T04:59:58.661Z,101035.78
2022-12-20T05:02:27.620Z,101027.56
2022-12-20T05:04:57.332Z,101032.44
2022-12-20T05:07:26.980Z,101028.19
2022-12-20T05:10:09.388Z,101026.25
2022-12-20T05:12:47.069Z,101020.34
2022-12-20T05:15:15.795Z,101014.75
2022-12-20T05:17:50.601Z,101012.47
2022-12-20T05:20:19.410Z,101006.09
2022-12-20T05:23:09.053Z,101015.13
2022-12-20T05:26:06.115Z,101015.69
2022-12-20T05:28:39.105Z,101006.63
2022-12-20T05:31:08.221Z,101006.25
2022-12-20T05:33:42.393Z,101007.88
2022-12-20T05:36:11.432Z,101007.28
2022-12-20T05:38:40.751Z,101003.38
2022-12-20T05:41:10.111Z,101001.38
2022-12-20T05:43:40.568Z,101001.75
2022-12-20T05:46:10.124Z,101004.81
2022-12-20T05:48:39.330Z,101002.66
2022-12-20T05:51:09.622Z,101003.88
2022-12-20T05:53:38.687Z,101002.16
2022-12-20T05:56:08.810Z,101006.75
2022-12-20T05:58:46.603Z,101004.56
2022-12-20T06:01:18.633Z,100995.38
2022-12-20T06:03:48.391Z,101005.81
2022-12-20T06:07:13.193Z,100994.28
2022-12-20T06:10:44.212Z,101012.47
2022-12-20T06:13:22.787Z,101004.81
2022-12-20T06:16:32.605Z,101009.28
2022-12-20T06:19:21.774Z,101007.75
2022-12-20T06:21:59.176Z,101004.81
2022-12-20T06:24:28.571Z,101002.91
2022-12-20T06:26:58.443Z,101016.22
2022-12-20T06:29:27.631Z,100998.25
2022-12-20T06:31:58.315Z,101009.41
2022-12-20T06:34:30.474Z,101009.59
2022-12-20T06:36:59.323Z,101007.38
2022-12-20T06:39:29.447Z,101008.66
2022-12-20T06:42:02.227Z,101010.53
2022-12-20T06:44:31.239Z,101010.31
2022-12-20T06:47:02.205Z,101016.88
2022-12-20T06:49:33.775Z,101009.09
2022-12-20T06:52:10.410Z,101010.25
2022-12-20T06:54:51.871Z,101007.75
2022-12-20T07:01:45.743Z,101011.97
2022-12-20T07:04:06.942Z,101006.47
2022-12-20T07:06:35.721Z,101028.25
2022-12-20T07:09:13.936Z,101020.66
2022-12-20T07:11:46.793Z,101018.25
2022-12-20T07:14:15.872Z,101027.00
2022-12-20T07:17:04.746Z,101029.34
2022-12-20T07:19:39.003Z,101027.72
2022-12-20T07:22:09.502Z,101023.06
2022-12-20T07:24:41.566Z,101026.53
2022-12-20T07:27:14.806Z,101025.66
2022-12-20T07:29:47.025Z,101006.91
2022-12-20T07:32:17.436Z,101016.03
2022-12-20T07:34:59.412Z,101014.13
2022-12-20T07:37:37.061Z,101024.22
2022-12-20T07:40:10.224Z,101018.03
2022-12-20T07:42:44.527Z,101027.59
2022-12-20T07:45:17.529Z,101042.94
2022-12-20T07:47:46.161Z,101029.03
2022-12-20T07:50:16.776Z,101017.06
2022-12-20T07:52:50.915Z,101007.88
2022-12-20T07:55:20.666Z,101017.00
2022-12-20T07:57:57.583Z,101013.19
2022-12-20T08:00:27.002Z,101018.00
2022-12-20T08:03:06.130Z,101013.91
2022-12-20T08:05:42.885Z,101018.38
2022-12-20T08:08:12.786Z,101010.94
2022-12-20T08:10:42.339Z,101006.19
2022-12-20T08:13:20.495Z,101010.78
2022-12-20T08:15:49.500Z,101000.84
2022-12-20T08:18:18.387Z,101007.81
2022-12-20T08:20:48.797Z,100999.34
2022-12-20T08:23:17.448Z,101000.97
2022-12-20T08:25:46.083Z,101006.50
2022-12-20T08:28:18.197Z,100997.91
2022-12-20T08:30:47.311Z,100986.50
2022-12-20T08:33:16.855Z,100986.19
2022-12-20T08:35:49.632Z,100998.22
2022-12-20T08:38:18.591Z,101008.91
2022-12-20T08:40:47.667Z,101014.25
2022-12-20T08:43:16.346Z,101008.22
2022-12-20T08:45:45.336Z,101005.63
2022-12-20T08:48:17.632Z,101010.41
2022-12-20T08:50:48.286Z,101019.56
2022-12-20T08:53:17.308Z,101020.06
2022-12-20T08:55:46.064Z,101023.38
2022-12-20T08:58:17.294Z,101023.09
2022-12-20T09:00:46.959Z,101028.63
2022-12-20T09:03:16.389Z,101019.09
2022-12-20T09:05:51.543Z,101021.09
2022-12-20T09:08:23.418Z,101019.94
2022-12-20T09:10:57.412Z,101031.50
2022-12-20T09:13:27.067Z,101017.84
2022-12-20T09:16:01.253Z,101021.66
2022-12-20T09:18:30.292Z,101004.88
2022-12-20T09:21:04.153Z,101001.44
2022-12-20T09:23:33.986Z,100997.81
2022-12-20T09:26:05.309Z,100998.59
2022-12-20T09:28:35.151Z,100997.91
2022-12-20T09:31:06.946Z,101011.63
2022-12-20T09:33:37.332Z,101004.00
2022-12-20T09:36:12.364Z,101001.34
2022-12-20T09:38:44.498Z,101002.38
2022-12-20T09:41:34.798Z,100999.41
2022-12-20T09:44:17.361Z,100999.53
2022-12-20T09:46:53.618Z,100994.81
2022-12-20T09:49:30.171Z,100996.47
2022-12-20T09:52:36.207Z,100980.44
2022-12-20T09:55:22.734Z,100988.63
2022-12-20T09:58:16.270Z,100977.00
2022-12-20T10:00:53.874Z,100982.97
2022-12-20T10:03:32.881Z,100981.94
2022-12-20T10:06:17.580Z,100975.94
2022-12-20T10:09:02.258Z,100964.00
2022-12-20T10:11:52.912Z,100953.19
2022-12-20T10:15:00.016Z,100945.09
2022-12-20T10:17:51.597Z,100945.13
2022-12-20T10:20:39.088Z,100942.41
2022-12-20T10:23:29.361Z,100960.25
2022-12-20T10:26:03.341Z,100947.50
2022-12-20T10:28:42.233Z,100946.44
2022-12-20T10:31:17.067Z,100947.75
2022-12-20T10:33:47.304Z,100943.72
2022-12-20T10:36:29.299Z,100940.34
2022-12-20T10:39:01.206Z,100939.25
2022-12-20T10:41:52.328Z,100927.19
2022-12-20T10:44:31.002Z,100926.13
2022-12-20T10:47:01.898Z,100916.91
2022-12-20T10:49:34.349Z,100924.44
2022-12-20T10:52:18.152Z,100922.72
2022-12-20T10:54:51.654Z,100916.00
2022-12-20T10:57:31.825Z,100906.16
2022-12-20T11:00:04.507Z,100893.84
2022-12-20T11:02:41.539Z,100892.03
2022-12-20T11:05:26.412Z,100905.63
2022-12-20T11:10:52.360Z,100886.63
2022-12-20T11:13:29.681Z,100879.03
2022-12-20T11:16:01.712Z,100868.91
2022-12-20T11:18:44.942Z,100869.25
2022-12-20T11:21:32.804Z,100856.19
2022-12-20T11:24:13.431Z,100846.44
2022-12-20T11:27:02.194Z,100842.28
2022-12-20T11:30:05.997Z,100834.25
2022-12-20T11:33:07.481Z,100818.63
2022-12-20T11:35:58.028Z,100821.31
2022-12-20T11:38:44.828Z,100823.91
2022-12-20T11:41:31.823Z,100803.69
2022-12-20T11:44:26.603Z,100806.44
2022-12-20T11:47:32.859Z,100805.13
2022-12-20T11:50:27.186Z,100800.56
2022-12-20T11:53:09.278Z,100812.81
2022-12-20T11:55:44.977Z,100799.13
2022-12-20T11:58:25.123Z,100797.16
2022-12-20T12:01:03.093Z,100779.09
2022-12-20T12:03:38.036Z,100781.16
2022-12-20T12:06:13.453Z,100777.81
2022-12-20T12:08:50.207Z,100778.56
2022-12-20T12:14:36.672Z,100774.06
2022-12-20T12:17:15.011Z,100773.72
2022-12-20T12:19:51.819Z,100765.19
2022-12-20T12:22:34.641Z,100756.28
2022-12-20T12:25:15.390Z,100746.06
2022-12-20T12:27:44.395Z,100752.53
2022-12-20T12:30:17.524Z,100752.47
2022-12-20T12:33:04.046Z,100743.53
2022-12-20T12:36:29.303Z,100739.88
2022-12-20T12:40:00.399Z,100723.25
2022-12-20T12:43:12.701Z,100729.63
2022-12-20T12:45:49.793Z,100730.09
2022-12-20T12:48:25.003Z,100738.94
2022-12-20T12:50:58.151Z,100729.31
2022-12-20T12:53:38.233Z,100735.72
2022-12-20T12:56:45.514Z,100726.25
2022-12-20T12:59:48.592Z,100722.44
2022-12-20T13:02:50.211Z,100722.69
2022-12-20T13:05:36.889Z,100729.16
2022-12-20T13:08:17.822Z,100706.53
2022-12-20T13:11:30.811Z,100723.06
2022-12-20T13:14:33.953Z,100722.78
2022-12-20T13:17:49.229Z,100721.53
2022-12-20T13:20:23.814Z,100718.59
2022-12-20T13:23:18.705Z,100731.44
2022-12-20T13:26:01.090Z,100735.84
2022-12-20T13:28:49.936Z,100706.03
2022-12-20T13:31:37.037Z,100715.94
2022-12-20T13:34:39.134Z,100720.59
2022-12-20T13:37:30.072Z,100724.25
2022-12-20T13:40:02.307Z,100731.56
2022-12-20T13:42:47.078Z,100731.38
2022-12-20T13:45:17.666Z,100729.91
2022-12-20T13:47:55.504Z,100729.06
2022-12-20T13:50:35.720Z,100731.44
2022-12-20T13:53:06.174Z,100733.16
2022-12-20T13:55:42.707Z,100732.63
2022-12-20T13:58:19.639Z,100731.88
2022-12-20T14:00:51.679Z,100731.88
2022-12-20T14:03:26.961Z,100720.56
2022-12-20T14:06:03.256Z,100721.00
2022-12-20T14:08:39.297Z,100713.38
2022-12-20T14:11:17.085Z,100714.78
2022-12-20T14:13:59.702Z,100732.53
2022-12-20T14:16:33.139Z,100729.63
2022-12-20T14:19:07.082Z,100720.41
2022-12-20T14:21:50.381Z,100721.41
2022-12-20T14:24:26.789Z,100707.91
2022-12-20T14:27:01.094Z,100707.53
2022-12-20T14:29:32.845Z,100708.78
2022-12-20T14:32:02.990Z,100711.78
2022-12-20T14:34:41.465Z,100713.50
2022-12-20T14:37:31.301Z,100714.78
2022-12-20T14:40:06.030Z,100728.16
2022-12-20T14:42:38.695Z,100732.31
2022-12-20T14:45:21.071Z,100730.59
2022-12-20T14:48:03.146Z,100725.47
2022-12-20T14:50:36.332Z,100732.31
2022-12-20T14:53:17.353Z,100735.84
2022-12-20T14:55:52.528Z,100720.47
2022-12-20T14:58:36.148Z,100723.97
2022-12-20T15:01:25.356Z,100718.94
2022-12-20T15:04:08.784Z,100711.38
2022-12-20T15:06:44.840Z,100710.22
2022-12-20T15:09:28.109Z,100715.31
2022-12-20T15:12:00.407Z,100704.09
2022-12-20T15:14:40.891Z,100706.88
2022-12-20T15:17:15.924Z,100717.47
2022-12-20T15:19:46.110Z,100719.59
2022-12-20T15:22:22.678Z,100715.41
2022-12-20T15:24:52.062Z,100717.91
2022-12-20T15:27:28.722Z,100709.22
2022-12-20T15:30:00.638Z,100714.28
2022-12-20T15:32:31.304Z,100714.38
2022-12-20T15:35:01.887Z,100718.66
2022-12-20T15:37:31.299Z,100716.09
2022-12-20T15:40:15.222Z,100698.34
2022-12-20T15:42:48.412Z,100697.47
2022-12-20T15:45:18.567Z,100696.19
2022-12-20T15:47:50.949Z,100697.13
2022-12-20T15:50:27.849Z,100703.25
2022-12-20T15:53:34.434Z,100699.28
2022-12-20T15:56:03.410Z,100702.19
2022-12-20T15:58:32.591Z,100688.69
2022-12-20T16:01:03.807Z,100688.28
2022-12-20T16:03:52.165Z,100687.41
2022-12-20T16:06:44.773Z,100686.16
2022-12-20T16:09:38.472Z,100682.28
2022-12-20T16:12:30.055Z,100693.41
2022-12-20T16:15:22.977Z,100695.56
2022-12-20T16:17:59.346Z,100692.75
2022-12-20T16:20:32.972Z,100681.00
2022-12-20T16:23:27.341Z,100689.88
2022-12-20T16:25:58.062Z,100687.63
2022-12-20T16:28:27.503Z,100691.69
2022-12-20T16:31:01.368Z,100689.56
2022-12-20T16:33:29.995Z,100688.94
2022-12-20T16:36:03.207Z,100699.38
2022-12-20T16:38:33.090Z,100695.66
2022-12-20T16:41:15.131Z,100699.72
2022-12-20T16:43:44.980Z,100694.38
2022-12-20T16:46:17.228Z,100695.31
2022-12-20T16:48:47.000Z,100682.06
2022-12-20T16:51:36.150Z,100690.31
2022-12-20T16:54:19.813Z,100688.50
2022-12-20T16:56:52.396Z,100694.47
2022-12-20T16:59:22.854Z,100698.97
2022-12-20T17:02:03.059Z,100694.69
2022-12-20T17:04:35.168Z,100705.50
2022-12-20T17:07:07.142Z,100699.63
2022-12-20T17:09:39.689Z,100693.31
2022-12-20T17:12:17.099Z,100693.41
2022-12-20T17:14:46.621Z,100700.91
2022-12-20T17:17:16.047Z,100695.00
2022-12-20T17:19:46.846Z,100695.97
2022-12-20T17:22:27.934Z,100697.47
2022-12-20T17:25:01.519Z,100688.59
2022-12-20T17:27:30.599Z,100684.00
2022-12-20T17:30:02.291Z,100685.59
2022-12-20T17:32:30.995Z,100683.47
2022-12-20T17:34:59.639Z,100689.78
2022-12-20T17:37:28.779Z,100691.69
2022-12-20T17:39:58.544Z,100692.31
2022-12-20T17:42:31.636Z,100686.16
2022-12-20T17:45:00.532Z,100679.53
2022-12-20T17:47:29.319Z,100676.28
2022-12-20T17:50:01.679Z,100674.78
2022-12-20T17:52:30.425Z,100680.38
2022-12-20T17:55:02.470Z,100680.56
2022-12-20T17:57:32.453Z,100682.28
2022-12-20T18:00:01.180Z,100685.28
2022-12-20T18:02:30.269Z,100676.72
2022-12-20T18:05:02.199Z,100672.66
2022-12-20T18:07:33.980Z,100677.56
2022-12-20T18:10:02.793Z,100673.09
2022-12-20T18:12:37.477Z,100684.88
2022-12-20T18:15:13.182Z,100682.81
2022-12-20T18:17:46.170Z,100669.88
2022-12-20T18:20:16.417Z,100676.28
2022-12-20T18:22:48.528Z,100680.13
2022-12-20T18:25:18.425Z,100677.78
2022-12-20T18:27:48.625Z,100668.59
2022-12-20T18:30:18.088Z,100670.81
2022-12-20T18:32:47.556Z,100667.94
2022-12-20T18:35:16.413Z,100655.66
2022-12-20T18:37:45.526Z,100659.50
2022-12-20T18:40:14.290Z,100667.00
2022-12-20T18:42:43.143Z,100659.44
2022-12-20T18:45:14.133Z,100661.44
2022-12-20T18:47:43.036Z,100667.72
2022-12-20T18:50:13.719Z,100666.16
2022-12-20T18:52:56.550Z,100665.38
2022-12-20T18:55:34.020Z,100655.53
2022-12-20T18:58:03.366Z,100660.03
2022-12-20T19:00:35.033Z,100653.41
2022-12-20T19:03:07.292Z,100661.09
2022-12-20T19:05:44.781Z,100667.94
2022-12-20T19:08:13.937Z,100660.88
2022-12-20T19:10:44.861Z,100664.50
2022-12-20T19:13:14.350Z,100669.00
2022-12-20T19:15:44.717Z,100672.09
2022-12-20T19:18:15.028Z,100665.53
2022-12-20T19:20:44.056Z,100667.56
2022-12-20T19:23:13.411Z,100672.16
2022-12-20T19:25:50.552Z,100675.59
2022-12-20T19:28:20.420Z,100670.53
2022-12-20T19:30:57.663Z,100668.88
2022-12-20T19:33:32.407Z,100671.38
2022-12-20T19:36:01.175Z,100677.13
2022-12-20T19:38:29.783Z,100672.75
2022-12-20T19:41:01.845Z,100658.53
2022-12-20T19:43:31.654Z,100677.28
2022-12-20T19:46:04.709Z,100676.84
2022-12-20T19:48:37.422Z,100680.25
2022-12-20T19:51:10.425Z,100677.06
2022-12-20T19:53:40.244Z,100681.78
2022-12-20T19:56:13.649Z,100682.81
2022-12-20T19:58:42.790Z,100676.03
2022-12-20T20:01:16.306Z,100671.19
2022-12-20T20:03:46.026Z,100669.28
2022-12-20T20:06:21.747Z,100671.50
2022-12-20T20:08:51.049Z,100664.78
2022-12-20T20:11:21.717Z,100660.56
2022-12-20T20:13:55.468Z,100665.94
2022-12-20T20:16:33.833Z,100659.97
2022-12-20T20:19:03.288Z,100660.28
2022-12-20T20:21:31.878Z,100660.94
2022-12-20T20:24:00.695Z,100655.06
2022-12-20T20:26:32.098Z,100653.56
2022-12-20T20:29:03.442Z,100659.47
2022-12-20T20:31:33.672Z,100659.47
2022-12-20T20:34:04.893Z,100662.34
2022-12-20T20:36:33.998Z,100657.75
2022-12-20T20:39:04.118Z,100662.41
2022-12-20T20:41:33.025Z,100669.81
2022-12-20T20:44:04.336Z,100668.34
2022-12-20T20:46:37.021Z,100661.69
2022-12-20T20:49:06.829Z,100664.38
2022-12-20T20:51:35.949Z,100668.75
2022-12-20T20:54:05.471Z,100675.63
2022-12-20T20:56:34.158Z,100667.25
2022-12-20T20:59:08.107Z,100667.44
2022-12-20T21:01:40.888Z,100663.50
2022-12-20T21:04:09.581Z,100655.78
2022-12-20T21:06:43.483Z,100665.13
2022-12-20T21:09:12.691Z,100662.59
2022-12-20T21:11:41.728Z,100659.31
2022-12-20T21:14:12.370Z,100657.97
2022-12-20T21:16:45.849Z,100668.09
2022-12-20T21:19:15.115Z,100656.59
2022-12-20T21:21:43.800Z,100657.00
2022-12-20T21:24:18.676Z,100656.47
2022-12-20T21:26:47.671Z,100659.69
2022-12-20T21:29:17.792Z,100666.56
2022-12-20T21:31:53.068Z,100671.31
2022-12-20T21:34:26.835Z,100673.72
2022-12-20T21:36:58.482Z,100671.59
2022-12-20T21:39:30.144Z,100671.34
2022-12-20T21:42:01.850Z,100667.63
2022-12-20T21:44:31.068Z,100665.69
2022-12-20T21:47:05.586Z,100655.72
2022-12-20T21:49:34.812Z,100661.66
2022-12-20T21:52:03.271Z,100656.13
2022-12-20T21:54:31.774Z,100663.03
2022-12-20T21:57:00.731Z,100660.97
2022-12-20T21:59:29.710Z,100663.97
2022-12-20T22:02:03.488Z,100666.66
2022-12-20T22:04:32.509Z,100656.91
2022-12-20T22:07:01.222Z,100656.16
2022-12-20T22:09:29.843Z,100656.91
2022-12-20T22:11:58.445Z,100662.59
2022-12-20T22:14:27.218Z,100660.47
2022-12-20T22:16:58.949Z,100662.19
2022-12-20T22:19:29.079Z,100668.50
2022-12-20T22:21:58.697Z,100661.66
2022-12-20T22:24:27.981Z,100674.69
2022-12-20T22:26:59.811Z,100672.88
2022-12-20T22:29:28.402Z,100668.50
2022-12-20T22:31:59.959Z,100664.34
2022-12-20T22:34:30.451Z,100668.69
2022-12-20T22:36:59.148Z,100669.69
2022-12-20T22:39:27.852Z,100666.69
2022-12-20T22:42:03.604Z,100665.06
2022-12-20T22:44:32.355Z,100664.44
2022-12-20T22:47:00.926Z,100654.94
2022-12-20T22:49:31.573Z,100653.00
2022-12-20T22:52:07.239Z,100660.81
2022-12-20T22:54:37.198Z,100659.88
2022-12-20T22:57:05.946Z,100656.19
2022-12-20T22:59:36.867Z,100663.25
2022-12-20T23:02:06.027Z,100657.38
2022-12-20T23:04:39.043Z,100662.97
2022-12-20T23:07:08.494Z,100659.88
2022-12-20T23:09:46.222Z,100660.91
2022-12-20T23:12:32.906Z,100666.38
2022-12-20T23:15:21.166Z,100663.50
2022-12-20T23:17:50.274Z,100662.41
2022-12-20T23:20:38.397Z,100664.97
2022-12-20T23:23:09.278Z,100664.78
2022-12-20T23:25:44.980Z,100661.34
2022-12-20T23:28:13.649Z,100663.59
2022-12-20T23:30:46.651Z,100664.53
2022-12-20T23:33:15.550Z,100654.59
2022-12-20T23:35:45.771Z,100662.19
2022-12-20T23:38:14.578Z,100653.09
2022-12-20T23:40:43.488Z,100657.03
2022-12-20T23:43:12.441Z,100664.63
2022-12-20T23:45:42.116Z,100661.22
2022-12-20T23:48:10.925Z,100664.63
2022-12-20T23:50:41.468Z,100663.47
2022-12-20T23:53:15.209Z,100660.78
2022-12-20T23:55:44.038Z,100653.84
2022-12-20T23:58:12.878Z,100654.28
